createdAt,value
2023-03-13T00:02:19.876Z,3.60
2023-03-13T00:04:48.022Z,3.30
2023-03-13T00:07:16.259Z,4.30
2023-03-13T00:09:44.422Z,3.50
2023-03-13T00:12:12.611Z,3.10
2023-03-13T00:14:40.700Z,3.50
2023-03-13T00:17:08.903Z,3.60
2023-03-13T00:19:37.289Z,3.60
2023-03-13T00:22:05.603Z,4.30
2023-03-13T00:24:34.131Z,3.50
2023-03-13T00:27:03.506Z,4.10
2023-03-13T00:29:34.325Z,2.70
2023-03-13T00:32:03.473Z,3.60
2023-03-13T00:34:32.235Z,3.80
2023-03-13T00:37:01.023Z,3.60
2023-03-13T00:39:29.375Z,3.20
2023-03-13T00:41:57.778Z,3.20
2023-03-13T00:44:25.828Z,3.60
2023-03-13T00:46:53.815Z,3.50
2023-03-13T00:49:21.783Z,3.40
2023-03-13T00:51:49.862Z,2.40
2023-03-13T00:54:18.321Z,3.60
2023-03-13T00:56:46.405Z,3.80
2023-03-13T00:59:15.104Z,2.90
2023-03-13T01:01:43.158Z,3.20
2023-03-13T01:04:12.202Z,2.50
2023-03-13T01:06:43.234Z,2.90
2023-03-13T01:09:15.381Z,2.80
2023-03-13T01:11:45.226Z,3.20
2023-03-13T01:14:18.330Z,3.40
2023-03-13T01:16:47.988Z,3.10
2023-03-13T01:19:17.095Z,2.40
2023-03-13T01:21:47.092Z,2.90
2023-03-13T01:24:15.445Z,2.70
2023-03-13T01:26:44.987Z,2.30
2023-03-13T01:29:14.176Z,2.90
2023-03-13T01:31:42.347Z,2.60
2023-03-13T01:34:11.116Z,2.40
2023-03-13T01:36:39.394Z,3.30
2023-03-13T01:39:08.246Z,3.00
2023-03-13T01:41:38.016Z,2.90
2023-03-13T01:44:23.517Z,3.50
2023-03-13T01:46:52.799Z,3.10
2023-03-13T01:49:35.129Z,3.90
2023-03-13T01:52:17.123Z,3.30
2023-03-13T01:55:09.859Z,2.70
2023-03-13T01:57:47.688Z,3.50
2023-03-13T02:00:20.014Z,3.60
2023-03-13T02:02:51.938Z,3.60
2023-03-13T02:05:24.498Z,3.60
2023-03-13T02:07:55.486Z,3.20
2023-03-13T02:10:26.045Z,3.60
2023-03-13T02:12:59.328Z,3.20
2023-03-13T02:15:28.731Z,3.90
2023-03-13T02:17:57.742Z,4.70
2023-03-13T02:20:25.904Z,3.80
2023-03-13T02:22:58.171Z,4.50
2023-03-13T02:25:33.468Z,3.60
2023-03-13T02:28:07.419Z,3.90
2023-03-13T02:30:38.973Z,4.70
2023-03-13T02:33:11.483Z,4.40
2023-03-13T02:35:46.887Z,4.40
2023-03-13T02:38:22.511Z,4.10
2023-03-13T02:40:57.514Z,3.10
2023-03-13T02:43:31.298Z,4.10
2023-03-13T02:46:16.107Z,3.30
2023-03-13T02:48:55.098Z,3.50
2023-03-13T02:51:38.823Z,3.30
2023-03-13T02:54:12.227Z,3.70
2023-03-13T02:56:46.956Z,3.20
2023-03-13T02:59:15.600Z,2.90
2023-03-13T03:01:44.727Z,3.80
2023-03-13T03:04:13.311Z,3.80
2023-03-13T03:06:41.566Z,3.70
2023-03-13T03:09:09.788Z,3.90
2023-03-13T03:11:38.774Z,3.80
2023-03-13T03:14:10.605Z,3.30
2023-03-13T03:16:41.702Z,4.00
2023-03-13T03:19:11.369Z,3.30
2023-03-13T03:24:07.713Z,4.10
2023-03-13T03:26:37.907Z,4.60
2023-03-13T03:29:11.239Z,5.30
2023-03-13T03:31:40.014Z,5.60
2023-03-13T03:34:08.532Z,4.80
2023-03-13T03:36:36.888Z,4.50
2023-03-13T03:39:05.506Z,5.30
2023-03-13T03:41:34.060Z,5.70
2023-03-13T03:44:02.324Z,7.10
2023-03-13T03:46:39.158Z,5.60
2023-03-13T03:49:07.375Z,6.00
2023-03-13T03:51:35.342Z,5.60
2023-03-13T03:54:03.626Z,5.90
2023-03-13T03:56:32.303Z,5.30
2023-03-13T03:59:01.030Z,6.20
2023-03-13T04:01:48.159Z,6.20
2023-03-13T04:04:21.638Z,6.80
2023-03-13T04:06:53.894Z,6.50
2023-03-13T04:09:22.080Z,7.00
2023-03-13T04:11:50.131Z,7.40
2023-03-13T04:14:18.246Z,7.50
2023-03-13T04:16:47.553Z,5.30
2023-03-13T04:19:16.433Z,7.50
2023-03-13T04:21:44.980Z,6.50
2023-03-13T04:24:16.163Z,5.50
2023-03-13T04:26:44.916Z,7.00
2023-03-13T04:29:12.991Z,6.50
2023-03-13T04:32:02.207Z,5.60
2023-03-13T04:34:33.165Z,6.20
2023-03-13T04:37:07.170Z,6.60
2023-03-13T04:39:47.466Z,5.70
2023-03-13T04:42:22.705Z,5.10
2023-03-13T04:44:53.957Z,6.20
2023-03-13T04:47:47.872Z,6.40
2023-03-13T04:50:31.027Z,5.40
2023-03-13T04:53:22.493Z,5.20
2023-03-13T04:56:41.539Z,5.20
2023-03-13T04:59:39.923Z,5.90
2023-03-13T05:02:37.410Z,5.60
2023-03-13T05:05:28.586Z,6.80
2023-03-13T05:08:36.505Z,6.20
2023-03-13T05:11:19.446Z,5.80
2023-03-13T05:13:59.332Z,5.80
2023-03-13T05:16:42.811Z,6.60
2023-03-13T05:19:29.337Z,7.00
2023-03-13T05:22:16.157Z,7.40
2023-03-13T05:25:10.863Z,7.00
2023-03-13T05:28:03.264Z,8.20
2023-03-13T05:30:44.504Z,8.80
2023-03-13T05:33:27.468Z,8.40
2023-03-13T05:36:24.930Z,9.20
2023-03-13T05:39:11.840Z,7.70
2023-03-13T05:41:48.687Z,6.90
2023-03-13T05:44:17.012Z,7.30
2023-03-13T05:47:08.627Z,7.20
2023-03-13T05:49:55.232Z,8.30
2023-03-13T05:52:34.869Z,6.90
2023-03-13T05:55:34.434Z,6.10
2023-03-13T05:58:22.895Z,7.90
2023-03-13T06:01:19.979Z,8.40
2023-03-13T06:03:56.250Z,8.40
2023-03-13T06:08:56.276Z,8.40
2023-03-13T06:11:27.726Z,8.10
2023-03-13T06:13:56.006Z,8.80
2023-03-13T06:16:33.806Z,9.50
2023-03-13T06:19:20.230Z,8.30
2023-03-13T06:21:48.489Z,7.90
2023-03-13T06:24:17.067Z,8.90
2023-03-13T06:26:45.010Z,9.20
2023-03-13T06:29:13.283Z,9.40
2023-03-13T06:31:41.742Z,8.90
2023-03-13T06:34:13.574Z,11.90
2023-03-13T06:36:41.971Z,13.00
2023-03-13T06:39:11.542Z,11.40
2023-03-13T06:41:39.821Z,11.00
2023-03-13T06:44:08.514Z,9.80
2023-03-13T06:46:36.693Z,10.00
2023-03-13T06:49:05.978Z,9.70
2023-03-13T06:54:03.666Z,10.40
2023-03-13T06:56:32.303Z,11.70
2023-03-13T06:59:00.406Z,12.20
2023-03-13T07:01:28.434Z,10.40
2023-03-13T07:03:56.736Z,10.90
2023-03-13T07:06:25.044Z,10.70
2023-03-13T07:08:53.128Z,10.70
2023-03-13T07:11:21.203Z,10.60
2023-03-13T07:13:49.450Z,10.70
2023-03-13T07:16:18.324Z,11.00
2023-03-13T07:18:46.505Z,11.90
2023-03-13T07:21:15.118Z,11.80
2023-03-13T07:23:43.839Z,11.70
2023-03-13T07:26:14.696Z,11.20
2023-03-13T07:28:43.049Z,10.90
2023-03-13T07:31:19.567Z,11.40
2023-03-13T07:33:48.020Z,10.70
2023-03-13T07:36:16.317Z,10.00
2023-03-13T07:38:48.521Z,10.30
2023-03-13T07:41:17.000Z,10.80
2023-03-13T07:43:46.203Z,9.20
2023-03-13T07:48:47.802Z,9.20
2023-03-13T07:51:33.467Z,9.80
2023-03-13T07:54:05.175Z,10.20
2023-03-13T07:56:34.120Z,10.00
2023-03-13T07:59:02.160Z,10.70
2023-03-13T08:01:31.413Z,10.60
2023-03-13T08:06:34.195Z,10.00
2023-03-13T08:09:02.718Z,8.90
2023-03-13T08:11:30.932Z,10.40
2023-03-13T08:13:59.229Z,10.60
2023-03-13T08:16:29.844Z,10.30
2023-03-13T08:18:59.105Z,10.70
2023-03-13T08:21:33.308Z,10.10
2023-03-13T08:24:05.981Z,10.50
2023-03-13T08:26:36.780Z,10.40
2023-03-13T08:29:08.528Z,10.20
2023-03-13T08:31:39.418Z,10.90
2023-03-13T08:34:07.437Z,10.20
2023-03-13T08:36:37.275Z,10.70
2023-03-13T08:39:11.987Z,10.70
2023-03-13T08:41:43.126Z,10.20
2023-03-13T08:44:13.597Z,10.10
2023-03-13T08:46:44.017Z,10.50
2023-03-13T08:49:13.561Z,10.50
2023-03-13T08:51:41.760Z,11.80
2023-03-13T08:54:09.833Z,11.00
2023-03-13T08:56:38.000Z,11.30
2023-03-13T08:59:06.350Z,10.30
2023-03-13T09:01:36.575Z,10.70
2023-03-13T09:04:06.317Z,9.80
2023-03-13T09:06:36.570Z,9.50
2023-03-13T09:09:05.714Z,9.30
2023-03-13T09:11:34.944Z,10.20
2023-03-13T09:14:03.774Z,8.00
2023-03-13T09:16:33.449Z,8.10
2023-03-13T09:19:02.328Z,8.30
2023-03-13T09:21:32.801Z,7.80
2023-03-13T09:24:02.257Z,8.00
2023-03-13T09:26:30.552Z,7.80
2023-03-13T09:28:59.234Z,7.90
2023-03-13T09:31:30.746Z,7.70
2023-03-13T09:33:59.837Z,7.20
2023-03-13T09:36:28.867Z,6.00
2023-03-13T09:38:58.848Z,6.00
2023-03-13T09:41:47.898Z,5.80
2023-03-13T09:44:32.797Z,5.40
2023-03-13T09:47:21.063Z,4.80
2023-03-13T09:49:54.622Z,5.00
2023-03-13T09:52:31.752Z,4.40
2023-03-13T09:55:13.214Z,4.50
2023-03-13T09:57:55.957Z,4.20
2023-03-13T10:00:38.459Z,4.50
2023-03-13T10:03:15.312Z,4.50
2023-03-13T10:05:53.269Z,3.60
2023-03-13T10:08:26.713Z,3.40
2023-03-13T10:11:12.049Z,3.80
2023-03-13T10:13:49.206Z,4.20
2023-03-13T10:16:39.646Z,3.80
2023-03-13T10:19:14.013Z,3.60
2023-03-13T10:21:45.073Z,3.70
2023-03-13T10:24:51.732Z,3.60
2023-03-13T10:27:19.915Z,3.70
2023-03-13T10:29:48.098Z,4.00
2023-03-13T10:32:19.045Z,4.10
2023-03-13T10:35:00.951Z,4.00
2023-03-13T10:37:33.476Z,4.20
2023-03-13T10:40:26.984Z,4.40
2023-03-13T10:43:22.684Z,4.10
2023-03-13T10:45:51.006Z,4.00
2023-03-13T10:50:53.634Z,3.30
2023-03-13T10:53:31.074Z,3.50
2023-03-13T10:56:09.493Z,3.60
2023-03-13T10:58:43.408Z,3.50
2023-03-13T11:01:26.860Z,3.50
2023-03-13T11:03:57.254Z,3.60
2023-03-13T11:06:32.210Z,3.80
2023-03-13T11:09:09.392Z,4.50
2023-03-13T11:11:45.843Z,4.30
2023-03-13T11:14:17.230Z,4.00
2023-03-13T11:17:02.071Z,4.10
2023-03-13T11:19:41.304Z,4.00
2023-03-13T11:22:12.401Z,4.00
2023-03-13T11:24:54.867Z,3.90
2023-03-13T11:27:49.245Z,4.00
2023-03-13T11:30:29.411Z,4.00
2023-03-13T11:33:30.436Z,3.70
2023-03-13T11:36:22.534Z,3.30
2023-03-13T11:39:01.024Z,3.40
2023-03-13T11:42:05.428Z,3.60
2023-03-13T11:45:01.659Z,3.70
2023-03-13T11:47:50.961Z,3.70
2023-03-13T11:50:31.088Z,3.40
2023-03-13T11:53:33.351Z,3.60
2023-03-13T11:56:13.917Z,3.50
2023-03-13T11:58:47.727Z,3.70
2023-03-13T12:01:21.176Z,3.60
2023-03-13T12:03:58.476Z,3.20
2023-03-13T12:06:49.622Z,3.60
2023-03-13T12:09:32.748Z,3.20
2023-03-13T12:12:19.148Z,3.50
2023-03-13T12:15:19.688Z,2.60
2023-03-13T12:18:02.855Z,3.20
2023-03-13T12:20:40.004Z,3.10
2023-03-13T12:23:17.328Z,2.60
2023-03-13T12:25:55.359Z,3.20
2023-03-13T12:28:34.387Z,2.70
2023-03-13T12:31:20.792Z,2.30
2023-03-13T12:33:48.746Z,3.10
2023-03-13T12:36:40.929Z,2.50
2023-03-13T12:39:29.273Z,2.20
2023-03-13T12:42:12.610Z,2.20
2023-03-13T12:44:40.989Z,2.80
2023-03-13T12:47:31.691Z,3.00
2023-03-13T12:50:06.210Z,2.60
2023-03-13T12:52:58.865Z,3.00
2023-03-13T12:55:38.843Z,2.90
2023-03-13T12:58:11.724Z,2.90
2023-03-13T13:00:43.972Z,3.00
2023-03-13T13:03:18.001Z,2.70
2023-03-13T13:06:11.691Z,3.00
2023-03-13T13:08:44.123Z,3.20
2023-03-13T13:11:33.988Z,3.20
2023-03-13T13:14:06.994Z,3.00
2023-03-13T13:16:35.221Z,2.90
2023-03-13T13:19:41.544Z,3.10
2023-03-13T13:22:37.698Z,3.40
2023-03-13T13:25:11.705Z,3.30
2023-03-13T13:27:39.792Z,3.40
2023-03-13T13:30:19.798Z,3.70
2023-03-13T13:32:52.366Z,3.70
2023-03-13T13:35:36.110Z,3.20
2023-03-13T13:38:19.464Z,3.40
2023-03-13T13:41:09.565Z,3.00
2023-03-13T13:43:40.744Z,3.30
2023-03-13T13:46:24.726Z,3.10
2023-03-13T13:49:05.061Z,2.90
2023-03-13T13:51:38.218Z,3.40
2023-03-13T13:54:32.469Z,3.30
2023-03-13T13:57:08.128Z,3.20
2023-03-13T13:59:42.739Z,2.70
2023-03-13T14:02:26.376Z,2.70
2023-03-13T14:04:54.491Z,2.70
2023-03-13T14:07:50.915Z,2.60
2023-03-13T14:10:21.946Z,2.60
2023-03-13T14:12:56.706Z,2.60
2023-03-13T14:15:34.513Z,2.70
2023-03-13T14:18:20.889Z,2.60
2023-03-13T14:21:14.324Z,2.70
2023-03-13T14:23:47.322Z,3.00
2023-03-13T14:26:26.378Z,3.30
2023-03-13T14:31:29.776Z,3.00
2023-03-13T14:34:00.327Z,2.90
2023-03-13T14:36:28.875Z,3.00
2023-03-13T14:38:59.731Z,3.30
2023-03-13T14:41:43.359Z,3.20
2023-03-13T14:44:24.638Z,3.40
2023-03-13T14:46:59.429Z,3.10
2023-03-13T14:49:31.890Z,3.40
2023-03-13T14:52:02.989Z,3.50
2023-03-13T14:54:37.112Z,2.90
2023-03-13T14:57:25.998Z,3.10
2023-03-13T15:00:15.951Z,3.70
2023-03-13T15:05:32.189Z,3.70
2023-03-13T15:08:00.364Z,3.00
2023-03-13T15:10:37.230Z,3.10
2023-03-13T15:13:25.698Z,2.80
2023-03-13T15:15:54.034Z,2.70
2023-03-13T15:18:25.276Z,3.50
2023-03-13T15:20:56.697Z,3.10
2023-03-13T15:23:25.537Z,3.40
2023-03-13T15:28:23.900Z,2.80
2023-03-13T15:30:53.113Z,3.60
2023-03-13T15:33:23.745Z,3.10
2023-03-13T15:35:51.762Z,3.40
2023-03-13T15:38:23.780Z,3.20
2023-03-13T15:40:52.679Z,3.10
2023-03-13T15:43:22.112Z,3.10
2023-03-13T15:45:52.080Z,3.10
2023-03-13T15:48:27.936Z,3.00
2023-03-13T15:50:59.820Z,3.30
2023-03-13T15:53:35.260Z,3.30
2023-03-13T15:56:13.212Z,3.10
2023-03-13T15:58:41.742Z,3.30
2023-03-13T16:01:14.906Z,3.40
2023-03-13T16:03:43.004Z,3.10
2023-03-13T16:06:17.568Z,3.10
2023-03-13T16:08:46.014Z,3.40
2023-03-13T16:11:16.672Z,3.30
2023-03-13T16:13:44.913Z,3.20
2023-03-13T16:16:25.570Z,3.20
2023-03-13T16:18:53.765Z,3.80
2023-03-13T16:21:29.407Z,3.00
2023-03-13T16:23:57.766Z,3.40
2023-03-13T16:26:29.264Z,3.50
2023-03-13T16:28:58.560Z,3.00
2023-03-13T16:31:30.680Z,3.10
2023-03-13T16:34:00.889Z,3.20
2023-03-13T16:36:31.442Z,2.80
2023-03-13T16:39:02.349Z,3.70
2023-03-13T16:41:30.473Z,3.00
2023-03-13T16:43:58.779Z,3.00
2023-03-13T16:46:36.624Z,3.50
2023-03-13T16:49:06.181Z,3.30
2023-03-13T16:51:34.533Z,3.10
2023-03-13T16:54:03.755Z,3.40
2023-03-13T16:56:37.138Z,3.50
2023-03-13T16:59:13.830Z,3.50
2023-03-13T17:01:42.151Z,3.60
2023-03-13T17:04:10.343Z,3.70
2023-03-13T17:06:41.533Z,3.40
2023-03-13T17:09:16.651Z,4.10
2023-03-13T17:11:45.229Z,4.40
2023-03-13T17:14:16.070Z,4.10
2023-03-13T17:16:45.480Z,4.20
2023-03-13T17:21:42.318Z,4.30
2023-03-13T17:24:11.865Z,4.10
2023-03-13T17:26:40.411Z,4.80
2023-03-13T17:29:14.570Z,4.10
2023-03-13T17:31:42.708Z,4.60
2023-03-13T17:34:11.927Z,5.00
2023-03-13T17:36:40.174Z,4.30
2023-03-13T17:39:13.161Z,5.00
2023-03-13T17:41:41.521Z,4.30
2023-03-13T17:44:09.523Z,4.20
2023-03-13T17:46:48.837Z,4.10
2023-03-13T17:51:46.438Z,3.70
2023-03-13T17:54:16.038Z,4.10
2023-03-13T17:56:45.172Z,3.90
2023-03-13T17:59:16.794Z,4.00
2023-03-13T18:01:45.917Z,5.20
2023-03-13T18:04:14.430Z,4.20
2023-03-13T18:06:45.238Z,4.60
2023-03-13T18:09:16.567Z,4.30
2023-03-13T18:11:45.404Z,4.40
2023-03-13T18:14:14.239Z,3.80
2023-03-13T18:16:48.013Z,3.70
2023-03-13T18:19:27.059Z,4.10
2023-03-13T18:21:56.165Z,3.90
2023-03-13T18:24:24.433Z,3.40
2023-03-13T18:26:52.558Z,3.70
2023-03-13T18:29:26.974Z,4.30
2023-03-13T18:31:58.705Z,4.40
2023-03-13T18:34:27.748Z,4.10
2023-03-13T18:36:56.258Z,4.50
2023-03-13T18:39:24.334Z,4.00
2023-03-13T18:41:52.828Z,4.30
2023-03-13T18:44:21.163Z,4.80
2023-03-13T18:46:51.979Z,4.50
2023-03-13T18:49:24.737Z,4.50
2023-03-13T18:51:54.160Z,4.30
2023-03-13T18:54:22.367Z,4.20
2023-03-13T18:56:50.459Z,4.10
2023-03-13T18:59:21.356Z,4.40
2023-03-13T19:01:51.247Z,4.90
2023-03-13T19:04:20.310Z,4.40
2023-03-13T19:06:50.083Z,4.50
2023-03-13T19:09:42.201Z,4.70
2023-03-13T19:12:11.409Z,4.50
2023-03-13T19:14:39.741Z,4.60
2023-03-13T19:17:18.359Z,5.30
2023-03-13T19:19:46.396Z,4.40
2023-03-13T19:22:14.815Z,5.50
2023-03-13T19:24:42.883Z,5.30
2023-03-13T19:27:15.055Z,4.10
2023-03-13T19:29:44.249Z,5.20
2023-03-13T19:32:17.779Z,6.00
2023-03-13T19:34:46.128Z,6.20
2023-03-13T19:37:16.356Z,5.60
2023-03-13T19:39:45.241Z,5.60
2023-03-13T19:42:13.317Z,6.50
2023-03-13T19:44:42.052Z,6.40
2023-03-13T19:47:14.684Z,5.40
2023-03-13T19:49:43.099Z,5.30
2023-03-13T19:52:11.375Z,4.80
2023-03-13T19:54:39.841Z,5.00
2023-03-13T19:57:10.784Z,6.10
2023-03-13T19:59:40.321Z,5.30
2023-03-13T20:02:10.080Z,6.20
2023-03-13T20:04:39.708Z,6.20
2023-03-13T20:09:38.496Z,5.40
2023-03-13T20:12:06.976Z,5.90
2023-03-13T20:14:35.146Z,5.70
2023-03-13T20:17:03.852Z,5.50
2023-03-13T20:19:32.206Z,4.90
2023-03-13T20:22:03.724Z,4.30
2023-03-13T20:24:33.640Z,5.60
2023-03-13T20:27:03.294Z,4.70
2023-03-13T20:29:31.883Z,4.30
2023-03-13T20:32:01.340Z,5.70
2023-03-13T20:34:29.451Z,5.20
2023-03-13T20:37:00.021Z,4.80
2023-03-13T20:39:28.052Z,5.30
2023-03-13T20:41:56.437Z,5.50
2023-03-13T20:44:24.824Z,4.60
2023-03-13T20:46:53.221Z,5.60
2023-03-13T20:49:21.462Z,5.00
2023-03-13T20:51:49.689Z,5.50
2023-03-13T20:54:17.677Z,5.70
2023-03-13T20:56:45.888Z,5.60
2023-03-13T20:59:14.057Z,5.30
2023-03-13T21:01:44.148Z,5.50
2023-03-13T21:04:12.386Z,6.00
2023-03-13T21:06:40.396Z,5.60
2023-03-13T21:09:08.494Z,5.10
2023-03-13T21:11:36.666Z,5.90
2023-03-13T21:14:04.668Z,5.90
2023-03-13T21:16:32.918Z,5.40
2023-03-13T21:19:01.439Z,5.50
2023-03-13T21:21:29.876Z,5.50
2023-03-13T21:23:57.846Z,5.10
2023-03-13T21:26:25.834Z,5.40
2023-03-13T21:28:53.986Z,7.00
2023-03-13T21:31:22.145Z,6.50
2023-03-13T21:33:50.957Z,7.40
2023-03-13T21:36:21.104Z,8.30
2023-03-13T21:38:50.832Z,6.30
2023-03-13T21:41:21.715Z,6.20
2023-03-13T21:43:49.997Z,7.30
2023-03-13T21:46:18.474Z,7.90
2023-03-13T21:48:47.348Z,6.50
2023-03-13T21:51:16.070Z,6.50
2023-03-13T21:53:44.701Z,5.20
2023-03-13T21:56:15.784Z,5.70
2023-03-13T21:58:48.074Z,7.40
2023-03-13T22:01:16.599Z,6.40
2023-03-13T22:03:46.062Z,5.70
2023-03-13T22:06:16.580Z,5.10
2023-03-13T22:08:45.244Z,6.40
2023-03-13T22:11:13.539Z,5.60
2023-03-13T22:13:41.554Z,6.00
2023-03-13T22:16:14.144Z,4.90
2023-03-13T22:18:43.210Z,5.50
2023-03-13T22:21:11.966Z,5.40
2023-03-13T22:23:40.139Z,6.80
2023-03-13T22:26:08.314Z,6.20
2023-03-13T22:28:37.315Z,5.20
2023-03-13T22:31:07.727Z,8.10
2023-03-13T22:33:36.013Z,7.10
2023-03-13T22:36:05.250Z,7.30
2023-03-13T22:38:39.045Z,6.70
2023-03-13T22:41:11.613Z,7.40
2023-03-13T22:43:41.203Z,7.60
2023-03-13T22:46:12.765Z,7.40
2023-03-13T22:48:41.190Z,8.70
2023-03-13T22:51:12.014Z,7.30
2023-03-13T22:53:41.752Z,7.80
2023-03-13T22:56:12.503Z,8.70
2023-03-13T22:58:41.230Z,6.50
2023-03-13T23:01:12.616Z,9.70
2023-03-13T23:03:41.358Z,7.30
2023-03-13T23:06:15.920Z,7.60
2023-03-13T23:08:44.147Z,8.20
2023-03-13T23:11:12.532Z,7.70
2023-03-13T23:13:41.252Z,7.50
2023-03-13T23:16:11.260Z,6.30
2023-03-13T23:18:40.021Z,7.60
2023-03-13T23:21:11.269Z,7.90
2023-03-13T23:23:39.977Z,7.10
2023-03-13T23:26:11.419Z,6.00
2023-03-13T23:28:40.116Z,6.80
2023-03-13T23:31:17.793Z,8.40
2023-03-13T23:33:46.678Z,7.50
2023-03-13T23:36:17.941Z,7.30
2023-03-13T23:38:50.296Z,7.20
2023-03-13T23:41:19.597Z,7.60
2023-03-13T23:43:48.199Z,7.90
2023-03-13T23:46:21.454Z,7.30
2023-03-13T23:48:52.696Z,8.00
2023-03-13T23:51:21.208Z,7.70
2023-03-13T23:53:49.786Z,8.80
2023-03-13T23:56:18.659Z,8.70
2023-03-13T23:58:46.982Z,8.60
